Pagina principale
METAR-TAF:

METAR-TAF

Aeroporti :

Aeroporto Internazionale O.R. Tambo

Johannesburg, Sudafrica

latitudine: 26-08S, longitudine: 028-14E, altezza: 1694 m

Osservazione

Il bollettino è stato emesso 47 minuti fa, alle 03:00 UTC
Vento 5 kt da est/nord-est
Temperature 7°C
Umidità 70%
Pressione 1033 hPa
Visibilità 10 km o più
nessuna nube inferiore a 1500 m e nessun cumulonembo

METAR: FAOR 230300Z 07005KT CAVOK 07/02 Q1033 NOSIG

Ora: 05:47 (03:47 UTC)

Previsione

Il bollettino è stato emesso 5 ore e 47 minuti fa, alle 22:00 UTC
Previsione valida dal 23 alle 00 UTC al 24 alle 06 UTC
Vento 3 kt da direzioni variabili
Visibilità 10 km o più
nessuna nube inferiore a 1500 m e nessun cumulonembo
Evoluzione graduale
dal 23 alle 12 UTC al 23 alle 14 UTC
Vento 10 kt da nord
Evoluzione graduale
dal 24 alle 02 UTC al 24 alle 04 UTC
Vento 3 kt da direzioni variabili

TAF: FAOR 222200Z 2300/2406 VRB03KT CAVOK BECMG 2312/2314 36010KT BECMG 2402/2404 VRB03KT TX23/2312Z TN08/2304Z

Osservazioni e previsioni meteorologiche di più di 4000 aeroporti (messaggi METAR e TAF).

Le stazioni disponibili sono rappresentate dai dischi gialli e rossi sulla carta.

Puntare il mouse per vedere il nome della stazione.

Clicca sopra per visualizzare le osservazioni e previsioni meteorologiche.

Per cambiare la mappa : fare clic sui pulsanti verdi con una croce nera per ingrandire, il pulsante verde con un trattino per diminuire, o sulla freccia verde per le mappe adiacenti.


METAR-TAF: